createdAt,value
2023-08-07T00:01:18.805Z,15.92
2023-08-07T00:04:21.565Z,15.84
2023-08-07T00:07:25.790Z,15.84
2023-08-07T00:10:28.659Z,15.85
2023-08-07T00:13:31.102Z,15.90
2023-08-07T00:16:33.724Z,15.98
2023-08-07T00:19:36.449Z,16.04
2023-08-07T00:22:39.153Z,15.85
2023-08-07T00:25:41.895Z,15.86
2023-08-07T00:28:44.840Z,15.79
2023-08-07T00:31:47.448Z,15.91
2023-08-07T00:34:50.726Z,16.03
2023-08-07T00:37:53.370Z,16.21
2023-08-07T00:40:56.200Z,16.01
2023-08-07T00:43:58.777Z,16.05
2023-08-07T00:47:01.466Z,15.89
2023-08-07T00:50:05.468Z,15.67
2023-08-07T00:53:08.158Z,15.70
2023-08-07T00:56:11.165Z,15.70
2023-08-07T00:59:16.034Z,15.92
2023-08-07T01:02:18.626Z,16.06
2023-08-07T01:05:25.307Z,15.89
2023-08-07T01:08:28.822Z,15.82
2023-08-07T01:11:45.007Z,15.64
2023-08-07T01:14:56.437Z,15.50
2023-08-07T01:18:00.711Z,15.85
2023-08-07T01:21:04.860Z,15.89
2023-08-07T01:24:07.587Z,15.88
2023-08-07T01:27:38.377Z,15.96
2023-08-07T01:30:44.132Z,16.02
2023-08-07T01:34:03.247Z,15.94
2023-08-07T01:37:08.685Z,15.86
2023-08-07T01:40:13.511Z,15.95
2023-08-07T01:43:16.204Z,15.97
2023-08-07T01:46:19.607Z,15.78
2023-08-07T01:49:24.024Z,15.57
2023-08-07T01:52:26.828Z,15.64
2023-08-07T01:55:30.319Z,15.60
2023-08-07T01:58:33.129Z,15.44
2023-08-07T02:01:35.755Z,15.37
2023-08-07T02:04:38.658Z,15.22
2023-08-07T02:07:42.274Z,15.32
2023-08-07T02:10:45.076Z,15.31
2023-08-07T02:13:47.686Z,15.22
2023-08-07T02:16:50.180Z,15.11
2023-08-07T02:19:52.986Z,15.02
2023-08-07T02:22:55.610Z,15.35
2023-08-07T02:25:58.294Z,15.37
2023-08-07T02:29:00.945Z,15.52
2023-08-07T02:32:04.089Z,15.50
2023-08-07T02:35:07.930Z,15.40
2023-08-07T02:38:11.085Z,15.06
2023-08-07T02:41:13.923Z,15.21
2023-08-07T02:44:18.530Z,15.35
2023-08-07T02:47:21.004Z,15.42
2023-08-07T02:50:25.731Z,15.32
2023-08-07T02:53:28.410Z,15.31
2023-08-07T02:56:31.257Z,15.06
2023-08-07T02:59:33.930Z,14.84
2023-08-07T03:02:36.479Z,14.93
2023-08-07T03:05:39.264Z,14.90
2023-08-07T03:08:42.166Z,14.67
2023-08-07T03:11:44.628Z,14.89
2023-08-07T03:14:47.486Z,14.69
2023-08-07T03:17:49.917Z,14.78
2023-08-07T03:20:52.839Z,14.66
2023-08-07T03:23:55.468Z,14.57
2023-08-07T03:26:58.190Z,14.41
2023-08-07T03:30:01.324Z,14.43
2023-08-07T03:33:05.936Z,14.84
2023-08-07T03:36:08.600Z,15.03
2023-08-07T03:39:13.142Z,14.83
2023-08-07T03:42:16.538Z,14.85
2023-08-07T03:45:21.722Z,14.75
2023-08-07T03:48:24.280Z,14.70
2023-08-07T03:51:27.380Z,14.61
2023-08-07T03:54:30.847Z,14.85
2023-08-07T03:57:34.779Z,14.94
2023-08-07T04:00:37.730Z,15.02
2023-08-07T04:03:40.278Z,14.93
2023-08-07T04:06:44.722Z,14.77
2023-08-07T04:09:47.546Z,14.74
2023-08-07T04:12:50.919Z,14.88
2023-08-07T04:15:53.666Z,15.21
2023-08-07T04:18:56.126Z,15.10
2023-08-07T04:21:58.776Z,15.24
2023-08-07T04:25:01.558Z,15.55
2023-08-07T04:28:04.516Z,15.73
2023-08-07T04:31:07.573Z,15.88
2023-08-07T04:34:10.043Z,15.54
2023-08-07T04:37:12.730Z,15.37
2023-08-07T04:40:15.572Z,15.71
2023-08-07T04:43:21.835Z,15.89
2023-08-07T04:46:24.632Z,16.06
2023-08-07T04:49:27.050Z,16.11
2023-08-07T04:52:29.605Z,16.28
2023-08-07T04:55:32.950Z,16.32
2023-08-07T04:58:35.370Z,16.30
2023-08-07T05:02:50.261Z,16.21
2023-08-07T05:05:59.470Z,16.05
2023-08-07T05:09:02.322Z,16.01
2023-08-07T05:12:06.361Z,16.23
2023-08-07T05:15:09.116Z,16.51
2023-08-07T05:18:11.551Z,16.56
2023-08-07T05:21:14.165Z,16.89
2023-08-07T05:24:17.078Z,17.04
2023-08-07T05:27:19.746Z,17.23
2023-08-07T05:30:22.244Z,17.33
2023-08-07T05:33:25.010Z,17.58
2023-08-07T05:36:27.580Z,17.57
2023-08-07T05:39:30.564Z,17.38
2023-08-07T05:42:33.069Z,17.39
2023-08-07T05:45:35.534Z,17.62
2023-08-07T05:48:37.961Z,17.79
2023-08-07T05:51:40.566Z,17.79
2023-08-07T05:54:43.094Z,17.89
2023-08-07T05:57:45.565Z,17.90
2023-08-07T06:00:48.150Z,17.72
2023-08-07T06:03:50.623Z,17.79
2023-08-07T06:06:53.274Z,17.74
2023-08-07T06:09:55.994Z,17.58
2023-08-07T06:12:59.030Z,17.60
2023-08-07T06:16:01.657Z,17.33
2023-08-07T06:19:10.729Z,17.13
2023-08-07T06:22:19.958Z,17.61
2023-08-07T06:25:22.560Z,17.70
2023-08-07T06:28:25.562Z,18.03
2023-08-07T06:31:28.144Z,18.38
2023-08-07T06:34:30.765Z,18.54
2023-08-07T06:37:33.197Z,18.80
2023-08-07T06:40:39.269Z,19.20
2023-08-07T06:43:41.802Z,19.74
2023-08-07T06:46:44.281Z,20.18
2023-08-07T06:49:46.728Z,20.68
2023-08-07T06:52:49.617Z,20.00
2023-08-07T06:55:52.921Z,20.66
2023-08-07T06:58:56.339Z,21.00
2023-08-07T07:01:59.224Z,21.32
2023-08-07T07:05:01.969Z,20.90
2023-08-07T07:08:04.633Z,21.31
2023-08-07T07:11:08.422Z,22.23
2023-08-07T07:14:11.850Z,20.86
2023-08-07T07:17:14.418Z,20.93
2023-08-07T07:20:16.885Z,21.23
2023-08-07T07:23:19.447Z,21.82
2023-08-07T07:26:22.632Z,20.86
2023-08-07T07:29:25.110Z,22.43
2023-08-07T07:32:27.874Z,23.37
2023-08-07T07:35:30.391Z,23.75
2023-08-07T07:38:32.948Z,23.28
2023-08-07T07:41:35.511Z,22.54
2023-08-07T07:44:39.788Z,21.70
2023-08-07T07:47:42.270Z,21.43
2023-08-07T07:50:44.653Z,21.05
2023-08-07T07:54:40.043Z,21.11
2023-08-07T07:57:42.655Z,21.73
2023-08-07T08:00:45.101Z,22.83
2023-08-07T08:03:47.788Z,22.18
2023-08-07T08:06:50.334Z,22.05
2023-08-07T08:09:53.191Z,22.07
2023-08-07T08:12:57.001Z,21.20
2023-08-07T08:15:59.704Z,21.21
2023-08-07T08:19:03.327Z,21.06
2023-08-07T08:22:06.141Z,21.61
2023-08-07T08:25:09.418Z,22.36
2023-08-07T08:28:11.905Z,21.55
2023-08-07T08:31:14.398Z,21.29
2023-08-07T08:34:16.911Z,20.84
2023-08-07T08:37:19.342Z,21.38
2023-08-07T08:40:22.044Z,23.27
2023-08-07T08:43:26.350Z,24.55
2023-08-07T08:46:30.803Z,24.68
2023-08-07T08:49:48.703Z,25.62
2023-08-07T08:52:52.819Z,23.00
2023-08-07T08:55:55.412Z,22.61
2023-08-07T08:59:01.976Z,21.28
2023-08-07T09:02:04.821Z,21.00
2023-08-07T09:05:07.851Z,20.34
2023-08-07T09:08:11.158Z,20.26
2023-08-07T09:11:14.896Z,20.73
2023-08-07T09:14:18.709Z,20.73
2023-08-07T09:17:33.271Z,21.27
2023-08-07T09:20:37.219Z,21.72
2023-08-07T09:23:39.612Z,21.92
2023-08-07T09:26:46.328Z,21.31
2023-08-07T09:29:49.598Z,20.19
2023-08-07T09:32:52.006Z,21.13
2023-08-07T09:36:07.241Z,20.33
2023-08-07T09:39:09.841Z,20.21
2023-08-07T09:42:17.999Z,20.15
2023-08-07T09:45:25.596Z,19.71
2023-08-07T09:48:29.086Z,20.26
2023-08-07T09:51:43.842Z,21.01
2023-08-07T09:54:46.531Z,21.13
2023-08-07T09:57:49.817Z,20.70
2023-08-07T10:01:00.303Z,20.93
2023-08-07T10:04:06.156Z,20.97
2023-08-07T10:07:08.709Z,20.77
2023-08-07T10:10:11.801Z,20.95
2023-08-07T10:13:16.070Z,20.93
2023-08-07T10:16:21.059Z,20.52
2023-08-07T10:19:23.967Z,20.68
2023-08-07T10:22:28.310Z,22.50
2023-08-07T10:25:31.709Z,23.09
2023-08-07T10:28:39.053Z,21.57
2023-08-07T10:31:45.134Z,20.82
2023-08-07T10:34:48.428Z,20.27
2023-08-07T10:37:53.363Z,21.01
2023-08-07T10:41:15.291Z,21.18
2023-08-07T10:44:25.786Z,22.55
2023-08-07T10:47:35.518Z,21.73
2023-08-07T10:50:58.032Z,22.20
2023-08-07T10:54:02.694Z,20.82
2023-08-07T10:57:10.894Z,20.36
2023-08-07T11:00:14.009Z,20.64
2023-08-07T11:03:29.593Z,21.65
2023-08-07T11:06:34.093Z,21.51
2023-08-07T11:09:37.011Z,21.02
2023-08-07T11:12:39.515Z,21.15
2023-08-07T11:15:42.101Z,21.92
2023-08-07T11:18:44.806Z,21.04
2023-08-07T11:21:48.931Z,21.90
2023-08-07T11:24:52.525Z,20.86
2023-08-07T11:27:55.252Z,21.11
2023-08-07T11:30:58.376Z,20.75
2023-08-07T11:34:03.711Z,20.64
2023-08-07T11:37:06.351Z,21.11
2023-08-07T11:40:09.542Z,21.23
2023-08-07T11:43:12.110Z,20.02
2023-08-07T11:46:16.538Z,19.61
2023-08-07T11:49:19.676Z,19.09
2023-08-07T11:52:23.976Z,19.23
2023-08-07T11:55:26.696Z,20.48
2023-08-07T11:58:36.042Z,21.44
2023-08-07T12:01:39.779Z,20.42
2023-08-07T12:04:42.671Z,20.57
2023-08-07T12:07:45.105Z,20.93
2023-08-07T12:10:56.870Z,21.39
2023-08-07T12:14:02.665Z,20.15
2023-08-07T12:17:05.735Z,19.61
2023-08-07T12:20:11.776Z,19.28
2023-08-07T12:23:18.003Z,19.15
2023-08-07T12:26:20.721Z,18.68
2023-08-07T12:29:24.731Z,19.84
2023-08-07T12:32:27.287Z,20.91
2023-08-07T12:35:30.018Z,20.83
2023-08-07T12:39:02.061Z,19.87
2023-08-07T12:49:16.129Z,20.14
2023-08-07T12:58:30.547Z,21.00
2023-08-07T13:01:33.204Z,20.86
2023-08-07T13:04:37.529Z,20.24
2023-08-07T13:07:40.587Z,19.53
2023-08-07T13:10:43.271Z,20.54
2023-08-07T13:13:45.756Z,20.04
2023-08-07T13:16:50.621Z,19.76
2023-08-07T13:19:53.176Z,20.22
2023-08-07T13:22:57.630Z,20.41
2023-08-07T13:26:00.123Z,20.87
2023-08-07T13:29:02.785Z,21.12
2023-08-07T13:32:10.693Z,21.02
2023-08-07T13:35:13.278Z,19.89
2023-08-07T13:38:17.463Z,20.16
2023-08-07T13:41:19.904Z,20.01
2023-08-07T13:44:42.563Z,20.50
2023-08-07T13:47:45.270Z,20.37
2023-08-07T13:50:50.236Z,20.20
2023-08-07T13:53:53.841Z,20.07
2023-08-07T13:58:32.068Z,20.16
2023-08-07T14:01:36.145Z,19.68
2023-08-07T14:04:38.634Z,20.04
2023-08-07T14:07:41.152Z,19.98
2023-08-07T14:10:43.649Z,20.46
2023-08-07T14:13:47.524Z,20.18
2023-08-07T14:16:50.091Z,20.65
2023-08-07T14:19:52.494Z,20.35
2023-08-07T14:23:02.895Z,20.43
2023-08-07T14:26:11.379Z,20.73
2023-08-07T14:29:14.859Z,20.18
2023-08-07T14:32:17.354Z,19.51
2023-08-07T14:35:23.455Z,20.13
2023-08-07T14:38:25.857Z,20.66
2023-08-07T14:41:28.551Z,20.23
2023-08-07T14:44:31.062Z,20.43
2023-08-07T14:47:33.782Z,20.04
2023-08-07T14:50:38.702Z,19.77
2023-08-07T14:53:41.733Z,19.66
2023-08-07T14:56:44.537Z,19.63
2023-08-07T14:59:46.998Z,19.75
2023-08-07T15:02:50.170Z,18.92
2023-08-07T15:05:52.762Z,19.00
2023-08-07T15:08:55.183Z,19.22
2023-08-07T15:11:58.080Z,19.14
2023-08-07T15:15:00.775Z,19.15
2023-08-07T15:18:06.703Z,19.07
2023-08-07T15:21:09.221Z,18.97
2023-08-07T15:24:11.964Z,19.04
2023-08-07T15:27:14.457Z,18.82
2023-08-07T15:30:17.112Z,18.95
2023-08-07T15:33:20.849Z,18.68
2023-08-07T15:36:25.380Z,18.49
2023-08-07T15:39:28.476Z,18.52
2023-08-07T15:42:31.109Z,18.61
2023-08-07T15:45:33.603Z,18.21
2023-08-07T15:48:36.961Z,17.72
2023-08-07T15:51:39.808Z,17.41
